Royal Accord — 3EUA9 — position and weather

sailwx.info

Track history (hours):
 
Tides and Currents Weather Stations Pressure Air Temp Water Temp Dewpoint Dewpoint Depression Visibility Wind Speed Wind Dir Waves Ship Positions

Royal Accord

Last reported at 2019-Feb-14 17:18 UTC. Time now 2019-Feb-22 22:18 UTC.
Position S 34°56' E 018°53'.
Warning: this ship's position is 8 days out of date.

Length 290 m; draft 18.4 m.

Type: Cargo ship. MMSI: 370064000.

Date/timePositionNaut miles runAvg speedWind from/ knotsBaromVisibWave heightAir tempDewpointWater temp
2019-Feb-14 17:18S 34°56' E 018°53'3 7.2
2019-Feb-14 16:55S 34°55' E 018°50'5 7.0
2019-Feb-14 16:15S 34°53' E 018°45'2 6.8
2019-Feb-14 16:00S 34°52' E 018°43'3 6.8
2019-Feb-14 15:30S 34°50' E 018°39'45 7.0
2019-Feb-14 09:09S 34°21' E 017°58'1 7.7
2019-Feb-14 09:00S 34°20' E 017°57'4 7.8
2019-Feb-14 08:30S 34°18' E 017°54'4 8.0
2019-Feb-14 08:00S 34°14' E 017°51'4 8.1
2019-Feb-14 07:30S 34°11' E 017°48'4 8.1
2019-Feb-14 07:00S 34°08' E 017°45'4 7.9
2019-Feb-14 06:30S 34°05' E 017°42'5 9.4
2019-Feb-14 06:00S 34°01' E 017°38'510.0
2019-Feb-14 05:30S 33°58' E 017°34'5 9.9
2019-Feb-14 04:58S 33°53' E 017°30'4 9.7
2019-Feb-14 04:30S 33°50' E 017°27'  
Track history (hours):
 
Tides and Currents Weather Stations Pressure Air Temp Water Temp Dewpoint Dewpoint Depression Visibility Wind Speed Wind Dir Waves Ship Positions

Royal Accord

Last reported at 2019-Feb-14 17:18 UTC. Time now 2019-Feb-22 22:18 UTC.
Position S 34°56' E 018°53'.
Warning: this ship's position is 8 days out of date.

Length 290 m; draft 18.4 m.

Type: Cargo ship. MMSI: 370064000.

Date/timePositionNaut miles runAvg speedWind from/ knotsBaromVisibWave heightAir tempDewpointWater temp
2019-Feb-14 17:18S 34°56' E 018°53'3 7.2
2019-Feb-14 16:55S 34°55' E 018°50'5 7.0
2019-Feb-14 16:15S 34°53' E 018°45'2 6.8
2019-Feb-14 16:00S 34°52' E 018°43'3 6.8
2019-Feb-14 15:30S 34°50' E 018°39'45 7.0
2019-Feb-14 09:09S 34°21' E 017°58'1 7.7
2019-Feb-14 09:00S 34°20' E 017°57'4 7.8
2019-Feb-14 08:30S 34°18' E 017°54'4 8.0
2019-Feb-14 08:00S 34°14' E 017°51'4 8.1
2019-Feb-14 07:30S 34°11' E 017°48'4 8.1
2019-Feb-14 07:00S 34°08' E 017°45'4 7.9
2019-Feb-14 06:30S 34°05' E 017°42'5 9.4
2019-Feb-14 06:00S 34°01' E 017°38'510.0
2019-Feb-14 05:30S 33°58' E 017°34'5 9.9
2019-Feb-14 04:58S 33°53' E 017°30'4 9.7
2019-Feb-14 04:30S 33°50' E 017°27'  

Dump ship's entire track history